Forside
METAR-TAF:

METAR-TAF

Lufthavne :

Shanghai Pudong International Airport

Shanghai-Pudong, Kina

Breddekreds: 31-07N, længdekreds: 121-46E, højde: 4 m

Aktuelle vejr

Denne rapport blev lavet for 22 minutter siden, kl. 12:30 UTC
Vind 6 kt fra nordnordøst
Temperatur 19°C
Fugtighed 73%
Tryk 1018 hPa
Sigt 10 km eller mere
ingen skyer under 1500m og ingen cumulonimbus

METAR: ZSPD 171230Z 03003MPS CAVOK 19/14 Q1018 NOSIG

Tid: 20:52 (12:52 UTC)

Vejrudsigter

Denne rapport blev lavet for 3 timer og 25 minutter siden, kl. 09:27 UTC
Foreløbig gælder fra 17 på 12 UTC til 18 på 12 UTC
Vind 8 kt fra nord
Sigt: 6000 m
Spredte skyer i en højde af 2000 ft

TAF: ZSPD 170927Z 1712/1812 01004MPS 6000 SCT020 TX21/1806Z TN15/1721Z

Vejrobservationer og prognoser fra mere end 4000 lufthavne (METAR og TAF).

De gule og røde prikker repræsenterer de meteorologiske stationer.

Flyt musen over at se navnet på stationen.

Så klik over at se vejr observationer og prognoser.

At skifte det kort: Klik på de grønne knapper med et sort kors for at zoome ind; på den grønne knap med en bindestreg for at zoome ud; eller på de grønne pile for tilstødende kort.


METAR-TAF: